createdAt,value
2018-11-26T00:01:41.886Z,59.70
2018-11-26T00:28:39.473Z,60.90
2018-11-26T00:41:46.633Z,61.00
2018-11-26T00:54:53.782Z,60.90
2018-11-26T01:08:00.998Z,61.00
2018-11-26T01:21:08.147Z,61.10
2018-11-26T01:34:15.355Z,61.10
2018-11-26T01:47:22.504Z,61.10
2018-11-26T02:00:29.634Z,61.10
2018-11-26T02:13:36.758Z,61.10
2018-11-26T02:26:43.878Z,61.00
2018-11-26T02:39:51.046Z,61.00
2018-11-26T02:52:58.250Z,60.90
2018-11-26T03:06:05.397Z,61.00
2018-11-26T03:19:12.613Z,60.50
2018-11-26T03:32:19.725Z,60.50
2018-11-26T03:45:26.851Z,60.40
2018-11-26T03:58:34.003Z,60.30
2018-11-26T04:11:41.121Z,60.10
2018-11-26T04:24:48.256Z,60.00
2018-11-26T04:37:55.399Z,59.80
2018-11-26T04:51:02.497Z,59.80
2018-11-26T05:17:12.585Z,59.70
2018-11-26T05:30:19.741Z,59.60
2018-11-26T05:43:26.946Z,59.40
2018-11-26T05:56:34.066Z,59.40
2018-11-26T06:09:41.172Z,59.40
2018-11-26T06:22:48.309Z,59.30
2018-11-26T06:35:55.429Z,59.20
2018-11-26T06:49:02.620Z,59.10
2018-11-26T07:02:09.775Z,57.90
2018-11-26T07:15:16.970Z,56.40
2018-11-26T07:28:24.117Z,52.60
2018-11-26T07:41:31.321Z,53.90
2018-11-26T07:54:38.503Z,54.90
2018-11-26T08:07:45.702Z,55.70
2018-11-26T08:20:52.819Z,56.00
2018-11-26T08:33:59.917Z,56.00
2018-11-26T08:47:07.090Z,56.40
2018-11-26T09:13:17.115Z,56.60
2018-11-26T09:26:24.269Z,57.60
2018-11-26T09:39:31.417Z,57.90
2018-11-26T09:52:38.574Z,58.00
2018-11-26T10:05:45.743Z,57.80
2018-11-26T10:18:52.874Z,57.80
2018-11-26T10:32:00.021Z,57.80
2018-11-26T10:45:07.203Z,57.90
2018-11-26T10:58:14.370Z,57.70
2018-11-26T11:11:23.266Z,57.50
2018-11-26T11:24:28.817Z,57.50
2018-11-26T11:51:26.907Z,59.00
2018-11-26T12:04:50.942Z,58.30
2018-11-26T12:18:13.751Z,58.10
2018-11-26T12:44:38.316Z,58.20
2018-11-26T12:57:45.431Z,58.20
2018-11-26T13:23:57.546Z,58.00
2018-11-26T13:37:04.637Z,57.70
2018-11-26T13:50:11.753Z,58.30
2018-11-26T14:03:18.855Z,56.30
2018-11-26T14:16:25.960Z,56.80
2018-11-26T14:29:33.146Z,55.80
2018-11-26T14:55:59.064Z,55.60
2018-11-26T15:09:06.220Z,55.10
2018-11-26T15:22:13.370Z,52.40
2018-11-26T15:35:20.511Z,52.20
2018-11-26T15:48:27.675Z,52.80
2018-11-26T16:01:34.784Z,53.60
2018-11-26T16:14:58.647Z,53.40
2018-11-26T16:28:21.494Z,53.60
2018-11-26T16:41:44.275Z,53.70
2018-11-26T16:55:07.151Z,53.90
2018-11-26T17:08:29.990Z,52.80
2018-11-26T17:21:52.765Z,53.00
2018-11-26T17:35:15.557Z,54.10
2018-11-26T17:48:38.367Z,54.40
2018-11-26T18:02:01.212Z,54.80
2018-11-26T18:15:24.016Z,56.20
2018-11-26T18:28:46.831Z,57.00
2018-11-26T18:42:09.630Z,55.10
2018-11-26T18:55:32.437Z,54.40
2018-11-26T19:08:55.296Z,54.00
2018-11-26T19:22:18.103Z,54.20
2018-11-26T19:35:40.938Z,54.50
2018-11-26T19:49:03.735Z,55.00
2018-11-26T20:02:26.578Z,54.60
2018-11-26T20:15:49.384Z,54.20
2018-11-26T20:29:12.197Z,54.70
2018-11-26T20:42:34.999Z,55.40
2018-11-26T20:55:57.822Z,55.30
2018-11-26T21:09:20.685Z,55.70
2018-11-26T21:22:43.496Z,55.50
2018-11-26T21:36:06.308Z,55.80
2018-11-26T21:49:29.060Z,56.10
2018-11-26T22:02:51.895Z,56.30
2018-11-26T22:16:14.722Z,56.60
2018-11-26T22:29:37.496Z,56.10
2018-11-26T22:43:00.371Z,55.80
2018-11-26T22:56:23.142Z,55.60
2018-11-26T23:09:45.961Z,55.70
2018-11-26T23:23:08.772Z,56.10
2018-11-26T23:36:31.613Z,55.80
2018-11-26T23:49:54.434Z,55.50
